sensor_id;sensor_type;location;lat;lon;timestamp;pressure;altitude;pressure_sealevel;temperature;humidity
43119;BME280;28729;49.838;8.650;2024-01-11T00:02:21;100988.41;;;-3.80;87.30
43119;BME280;28729;49.838;8.650;2024-01-11T00:06:23;100985.81;;;-3.81;88.05
43119;BME280;28729;49.838;8.650;2024-01-11T00:10:25;100992.19;;;-3.82;87.99
43119;BME280;28729;49.838;8.650;2024-01-11T00:14:27;100981.53;;;-3.84;88.24
43119;BME280;28729;49.838;8.650;2024-01-11T00:18:29;100987.66;;;-3.82;88.04
43119;BME280;28729;49.838;8.650;2024-01-11T00:22:31;100982.78;;;-3.88;87.97
43119;BME280;28729;49.838;8.650;2024-01-11T00:26:33;100993.97;;;-3.93;88.17
43119;BME280;28729;49.838;8.650;2024-01-11T00:30:36;100994.94;;;-3.94;88.49
43119;BME280;28729;49.838;8.650;2024-01-11T00:34:37;101000.56;;;-3.97;88.67
43119;BME280;28729;49.838;8.650;2024-01-11T00:38:40;100997.03;;;-3.97;89.15
43119;BME280;28729;49.838;8.650;2024-01-11T00:42:42;101002.78;;;-4.02;89.34
43119;BME280;28729;49.838;8.650;2024-01-11T00:46:44;100998.03;;;-4.09;89.79
43119;BME280;28729;49.838;8.650;2024-01-11T00:50:45;101012.59;;;-4.12;90.05
43119;BME280;28729;49.838;8.650;2024-01-11T00:54:47;101006.63;;;-4.16;90.16
43119;BME280;28729;49.838;8.650;2024-01-11T00:58:49;101011.25;;;-4.18;90.66
43119;BME280;28729;49.838;8.650;2024-01-11T01:02:51;101015.91;;;-4.20;90.43
43119;BME280;28729;49.838;8.650;2024-01-11T01:06:53;101006.13;;;-4.21;90.61
43119;BME280;28729;49.838;8.650;2024-01-11T01:10:55;101007.13;;;-4.22;91.02
43119;BME280;28729;49.838;8.650;2024-01-11T01:14:56;101017.16;;;-4.24;90.75
43119;BME280;28729;49.838;8.650;2024-01-11T01:18:58;101014.59;;;-4.25;90.36
43119;BME280;28729;49.838;8.650;2024-01-11T01:23:01;101021.19;;;-4.29;90.44
43119;BME280;28729;49.838;8.650;2024-01-11T01:27:03;101020.59;;;-4.33;91.21
43119;BME280;28729;49.838;8.650;2024-01-11T01:31:04;101014.72;;;-4.38;91.74
43119;BME280;28729;49.838;8.650;2024-01-11T01:40:13;101015.47;;;-4.47;92.28
43119;BME280;28729;49.838;8.650;2024-01-11T01:44:15;101020.84;;;-4.47;92.28
43119;BME280;28729;49.838;8.650;2024-01-11T01:48:17;101027.69;;;-4.43;92.26
43119;BME280;28729;49.838;8.650;2024-01-11T01:52:19;101016.19;;;-4.45;92.49
43119;BME280;28729;49.838;8.650;2024-01-11T01:56:22;101017.41;;;-4.49;92.33
43119;BME280;28729;49.838;8.650;2024-01-11T02:00:24;101022.78;;;-4.49;92.81
43119;BME280;28729;49.838;8.650;2024-01-11T02:04:26;101027.31;;;-4.50;93.38
43119;BME280;28729;49.838;8.650;2024-01-11T02:08:29;101028.31;;;-4.51;92.88
43119;BME280;28729;49.838;8.650;2024-01-11T02:12:32;101020.59;;;-4.55;93.07
43119;BME280;28729;49.838;8.650;2024-01-11T02:16:36;101021.09;;;-4.62;94.06
43119;BME280;28729;49.838;8.650;2024-01-11T02:20:37;101019.50;;;-4.64;93.84
43119;BME280;28729;49.838;8.650;2024-01-11T02:24:39;101016.69;;;-4.63;94.14
43119;BME280;28729;49.838;8.650;2024-01-11T02:28:45;101029.41;;;-4.65;93.92
43119;BME280;28729;49.838;8.650;2024-01-11T02:32:48;101027.69;;;-4.66;94.06
43119;BME280;28729;49.838;8.650;2024-01-11T02:36:50;101027.09;;;-4.69;94.32
43119;BME280;28729;49.838;8.650;2024-01-11T02:40:53;101040.88;;;-4.74;94.72
43119;BME280;28729;49.838;8.650;2024-01-11T02:44:56;101035.88;;;-4.78;95.05
43119;BME280;28729;49.838;8.650;2024-01-11T02:48:57;101035.63;;;-4.87;95.52
43119;BME280;28729;49.838;8.650;2024-01-11T02:52:59;101033.53;;;-4.83;95.89
43119;BME280;28729;49.838;8.650;2024-01-11T02:57:01;101039.06;;;-4.85;96.25
43119;BME280;28729;49.838;8.650;2024-01-11T03:01:03;101026.47;;;-4.84;96.29
43119;BME280;28729;49.838;8.650;2024-01-11T03:05:05;101034.28;;;-4.81;96.17
43119;BME280;28729;49.838;8.650;2024-01-11T03:09:07;101025.72;;;-4.86;96.00
43119;BME280;28729;49.838;8.650;2024-01-11T03:13:09;101019.25;;;-4.84;96.51
43119;BME280;28729;49.838;8.650;2024-01-11T03:17:11;101021.09;;;-4.84;96.79
43119;BME280;28729;49.838;8.650;2024-01-11T03:21:12;101014.72;;;-4.83;96.89
43119;BME280;28729;49.838;8.650;2024-01-11T03:25:14;101012.28;;;-4.86;97.16
43119;BME280;28729;49.838;8.650;2024-01-11T03:29:16;100999.94;;;-4.89;97.22
43119;BME280;28729;49.838;8.650;2024-01-11T03:33:18;101015.22;;;-4.89;97.33
43119;BME280;28729;49.838;8.650;2024-01-11T03:37:20;101006.66;;;-4.94;97.99
43119;BME280;28729;49.838;8.650;2024-01-11T03:41:22;101007.50;;;-4.94;99.04
43119;BME280;28729;49.838;8.650;2024-01-11T03:45:24;101003.97;;;-4.94;98.41
43119;BME280;28729;49.838;8.650;2024-01-11T03:49:26;101006.03;;;-4.98;98.49
43119;BME280;28729;49.838;8.650;2024-01-11T03:53:29;101009.81;;;-5.00;97.71
43119;BME280;28729;49.838;8.650;2024-01-11T03:57:30;101005.78;;;-5.06;98.36
43119;BME280;28729;49.838;8.650;2024-01-11T04:01:33;101015.81;;;-5.08;98.24
43119;BME280;28729;49.838;8.650;2024-01-11T04:05:34;101023.38;;;-5.13;98.81
43119;BME280;28729;49.838;8.650;2024-01-11T04:09:37;101024.59;;;-5.17;99.20
43119;BME280;28729;49.838;8.650;2024-01-11T04:13:39;101023.22;;;-5.23;99.13
43119;BME280;28729;49.838;8.650;2024-01-11T04:17:42;101032.47;;;-5.27;100.00
43119;BME280;28729;49.838;8.650;2024-01-11T04:21:44;101034.22;;;-5.26;100.00
43119;BME280;28729;49.838;8.650;2024-01-11T04:25:45;101029.56;;;-5.24;100.00
43119;BME280;28729;49.838;8.650;2024-01-11T04:29:47;101031.16;;;-5.21;100.00
43119;BME280;28729;49.838;8.650;2024-01-11T04:33:49;101035.69;;;-5.22;100.00
43119;BME280;28729;49.838;8.650;2024-01-11T04:37:51;101030.19;;;-5.20;100.00
43119;BME280;28729;49.838;8.650;2024-01-11T04:41:53;101030.31;;;-5.22;100.00
43119;BME280;28729;49.838;8.650;2024-01-11T04:45:54;101036.28;;;-5.18;100.00
43119;BME280;28729;49.838;8.650;2024-01-11T04:49:56;101031.78;;;-5.18;100.00
43119;BME280;28729;49.838;8.650;2024-01-11T04:53:58;101031.06;;;-5.20;100.00
43119;BME280;28729;49.838;8.650;2024-01-11T04:58:00;101030.31;;;-5.22;100.00
43119;BME280;28729;49.838;8.650;2024-01-11T05:02:02;101029.56;;;-5.24;99.96
43119;BME280;28729;49.838;8.650;2024-01-11T05:06:03;101037.00;;;-5.28;100.00
43119;BME280;28729;49.838;8.650;2024-01-11T05:10:06;101039.81;;;-5.29;100.00
43119;BME280;28729;49.838;8.650;2024-01-11T05:14:07;101035.41;;;-5.30;100.00
43119;BME280;28729;49.838;8.650;2024-01-11T05:18:09;101035.63;;;-5.33;100.00
43119;BME280;28729;49.838;8.650;2024-01-11T05:22:12;101034.91;;;-5.35;100.00
43119;BME280;28729;49.838;8.650;2024-01-11T05:26:15;101051.28;;;-5.38;100.00
43119;BME280;28729;49.838;8.650;2024-01-11T05:30:17;101037.09;;;-5.40;100.00
43119;BME280;28729;49.838;8.650;2024-01-11T05:34:19;101057.09;;;-5.44;100.00
43119;BME280;28729;49.838;8.650;2024-01-11T05:38:21;101056.59;;;-5.50;100.00
43119;BME280;28729;49.838;8.650;2024-01-11T05:42:23;101049.72;;;-5.54;100.00
43119;BME280;28729;49.838;8.650;2024-01-11T05:46:25;101049.97;;;-5.57;100.00
43119;BME280;28729;49.838;8.650;2024-01-11T05:50:27;101053.63;;;-5.58;100.00
43119;BME280;28729;49.838;8.650;2024-01-11T05:54:28;101049.47;;;-5.62;100.00
43119;BME280;28729;49.838;8.650;2024-01-11T05:58:30;101066.44;;;-5.61;100.00
43119;BME280;28729;49.838;8.650;2024-01-11T06:02:32;101069.22;;;-5.63;100.00
43119;BME280;28729;49.838;8.650;2024-01-11T06:06:34;101068.38;;;-5.63;100.00
43119;BME280;28729;49.838;8.650;2024-01-11T06:10:36;101070.53;;;-5.68;100.00
43119;BME280;28729;49.838;8.650;2024-01-11T06:14:37;101078.34;;;-5.65;100.00
43119;BME280;28729;49.838;8.650;2024-01-11T06:18:40;101084.94;;;-5.69;100.00
43119;BME280;28729;49.838;8.650;2024-01-11T06:22:41;101102.88;;;-5.70;100.00
43119;BME280;28729;49.838;8.650;2024-01-11T06:26:46;101109.22;;;-5.71;100.00
43119;BME280;28729;49.838;8.650;2024-01-11T06:30:48;101118.88;;;-5.68;100.00
43119;BME280;28729;49.838;8.650;2024-01-11T06:34:50;101122.31;;;-5.66;100.00
43119;BME280;28729;49.838;8.650;2024-01-11T06:38:53;101122.53;;;-5.69;100.00
43119;BME280;28729;49.838;8.650;2024-01-11T06:42:54;101133.50;;;-5.73;100.00
43119;BME280;28729;49.838;8.650;2024-01-11T06:46:57;101133.09;;;-5.79;100.00
43119;BME280;28729;49.838;8.650;2024-01-11T06:50:58;101138.25;;;-5.76;100.00
43119;BME280;28729;49.838;8.650;2024-01-11T06:55:03;101135.88;;;-5.81;100.00
43119;BME280;28729;49.838;8.650;2024-01-11T06:59:06;101142.97;;;-5.80;100.00
43119;BME280;28729;49.838;8.650;2024-01-11T07:03:09;101137.72;;;-5.81;100.00
43119;BME280;28729;49.838;8.650;2024-01-11T07:07:12;101143.31;;;-5.84;100.00
43119;BME280;28729;49.838;8.650;2024-01-11T07:11:14;101137.09;;;-5.85;100.00
43119;BME280;28729;49.838;8.650;2024-01-11T07:15:16;101148.91;;;-5.87;100.00
43119;BME280;28729;49.838;8.650;2024-01-11T07:19:18;101149.88;;;-5.88;100.00
43119;BME280;28729;49.838;8.650;2024-01-11T07:23:20;101154.59;;;-5.92;100.00
43119;BME280;28729;49.838;8.650;2024-01-11T07:27:22;101148.91;;;-5.87;100.00
43119;BME280;28729;49.838;8.650;2024-01-11T07:31:24;101150.94;;;-5.91;100.00
43119;BME280;28729;49.838;8.650;2024-01-11T07:35:26;101155.34;;;-5.90;100.00
43119;BME280;28729;49.838;8.650;2024-01-11T07:39:28;101150.94;;;-5.91;100.00
43119;BME280;28729;49.838;8.650;2024-01-11T07:43:32;101148.81;;;-5.86;100.00
43119;BME280;28729;49.838;8.650;2024-01-11T07:47:53;101156.06;;;-5.75;100.00
43119;BME280;28729;49.838;8.650;2024-01-11T07:51:55;101160.97;;;-5.69;100.00
43119;BME280;28729;49.838;8.650;2024-01-11T07:55:58;101169.34;;;-5.61;100.00
43119;BME280;28729;49.838;8.650;2024-01-11T08:00:00;101177.06;;;-5.56;99.61
43119;BME280;28729;49.838;8.650;2024-01-11T08:04:02;101179.94;;;-5.59;99.43
43119;BME280;28729;49.838;8.650;2024-01-11T08:08:04;101174.47;;;-5.58;99.75
43119;BME280;28729;49.838;8.650;2024-01-11T08:12:06;101170.81;;;-5.57;99.93
43119;BME280;28729;49.838;8.650;2024-01-11T08:16:08;101178.41;;;-5.51;99.11
43119;BME280;28729;49.838;8.650;2024-01-11T08:20:11;101183.47;;;-5.46;98.74
43119;BME280;28729;49.838;8.650;2024-01-11T08:24:13;101183.09;;;-5.41;98.00
43119;BME280;28729;49.838;8.650;2024-01-11T08:28:15;101172.88;;;-5.36;98.48
43119;BME280;28729;49.838;8.650;2024-01-11T08:32:16;101165.00;;;-5.27;98.13
43119;BME280;28729;49.838;8.650;2024-01-11T08:36:32;101148.31;;;-5.19;97.32
43119;BME280;28729;49.838;8.650;2024-01-11T08:40:35;101155.16;;;-5.15;97.12
43119;BME280;28729;49.838;8.650;2024-01-11T08:44:41;101160.59;;;-5.04;97.00
43119;BME280;28729;49.838;8.650;2024-01-11T08:48:44;101146.91;;;-5.00;96.14
43119;BME280;28729;49.838;8.650;2024-01-11T08:52:46;101159.41;;;-4.88;96.46
43119;BME280;28729;49.838;8.650;2024-01-11T08:56:48;101166.53;;;-4.76;95.69
43119;BME280;28729;49.838;8.650;2024-01-11T09:00:50;101174.41;;;-4.62;94.94
43119;BME280;28729;49.838;8.650;2024-01-11T09:04:52;101177.13;;;-4.50;94.27
43119;BME280;28729;49.838;8.650;2024-01-11T09:08:53;101176.06;;;-4.37;94.15
43119;BME280;28729;49.838;8.650;2024-01-11T09:12:56;101184.03;;;-4.24;93.46
43119;BME280;28729;49.838;8.650;2024-01-11T09:16:57;101183.50;;;-4.29;92.17
43119;BME280;28729;49.838;8.650;2024-01-11T09:20:59;101202.72;;;-4.33;91.97
43119;BME280;28729;49.838;8.650;2024-01-11T09:25:01;101209.47;;;-4.28;91.97
43119;BME280;28729;49.838;8.650;2024-01-11T09:29:03;101214.84;;;-4.28;90.90
43119;BME280;28729;49.838;8.650;2024-01-11T09:33:05;101207.25;;;-4.23;91.04
43119;BME280;28729;49.838;8.650;2024-01-11T09:37:08;101211.06;;;-4.14;90.76
43119;BME280;28729;49.838;8.650;2024-01-11T09:41:12;101208.75;;;-3.96;90.82
43119;BME280;28729;49.838;8.650;2024-01-11T09:45:16;101201.69;;;-3.75;90.65
43119;BME280;28729;49.838;8.650;2024-01-11T09:49:21;101196.13;;;-3.51;89.96
43119;BME280;28729;49.838;8.650;2024-01-11T09:53:24;101180.28;;;-3.33;88.91
43119;BME280;28729;49.838;8.650;2024-01-11T09:57:31;101200.09;;;-3.23;87.73
43119;BME280;28729;49.838;8.650;2024-01-11T10:01:36;101186.44;;;-3.10;87.74
43119;BME280;28729;49.838;8.650;2024-01-11T10:05:40;101194.25;;;-2.95;86.34
43119;BME280;28729;49.838;8.650;2024-01-11T10:09:42;101195.31;;;-2.87;85.44
43119;BME280;28729;49.838;8.650;2024-01-11T10:13:44;101196.72;;;-2.71;84.80
43119;BME280;28729;49.838;8.650;2024-01-11T10:17:45;101201.75;;;-2.67;84.16
43119;BME280;28729;49.838;8.650;2024-01-11T10:21:49;101219.63;;;-2.66;84.13
43119;BME280;28729;49.838;8.650;2024-01-11T10:25:51;101212.28;;;-2.64;84.00
43119;BME280;28729;49.838;8.650;2024-01-11T10:29:53;101211.88;;;-2.59;84.10
43119;BME280;28729;49.838;8.650;2024-01-11T10:33:57;101206.34;;;-2.58;83.39
43119;BME280;28729;49.838;8.650;2024-01-11T10:38:01;101192.28;;;-2.40;83.69
43119;BME280;28729;49.838;8.650;2024-01-11T10:42:08;101174.84;;;-2.26;83.13
43119;BME280;28729;49.838;8.650;2024-01-11T10:46:10;101185.19;;;-2.11;82.20
43119;BME280;28729;49.838;8.650;2024-01-11T10:50:15;101187.94;;;-2.01;81.71
43119;BME280;28729;49.838;8.650;2024-01-11T10:54:21;101193.06;;;-1.98;81.90
43119;BME280;28729;49.838;8.650;2024-01-11T10:58:26;101182.66;;;-1.72;82.19
43119;BME280;28729;49.838;8.650;2024-01-11T11:02:29;101174.59;;;-1.62;80.28
43119;BME280;28729;49.838;8.650;2024-01-11T11:06:31;101155.28;;;-1.48;79.83
43119;BME280;28729;49.838;8.650;2024-01-11T11:10:36;101156.84;;;-1.45;78.96
43119;BME280;28729;49.838;8.650;2024-01-11T11:14:38;101145.66;;;-1.31;79.52
43119;BME280;28729;49.838;8.650;2024-01-11T11:18:40;101157.31;;;-1.21;78.33
43119;BME280;28729;49.838;8.650;2024-01-11T11:22:42;101151.63;;;-1.08;77.65
43119;BME280;28729;49.838;8.650;2024-01-11T11:26:44;101137.56;;;-0.92;76.71
43119;BME280;28729;49.838;8.650;2024-01-11T11:30:48;101138.25;;;-0.80;76.06
43119;BME280;28729;49.838;8.650;2024-01-11T11:34:51;101132.38;;;-0.66;75.35
43119;BME280;28729;49.838;8.650;2024-01-11T11:38:54;101138.66;;;-0.56;75.35
43119;BME280;28729;49.838;8.650;2024-01-11T11:43:04;101139.34;;;-0.44;74.97
43119;BME280;28729;49.838;8.650;2024-01-11T11:47:20;101143.31;;;-0.38;73.54
43119;BME280;28729;49.838;8.650;2024-01-11T11:51:23;101149.81;;;-0.12;73.94
43119;BME280;28729;49.838;8.650;2024-01-11T11:55:30;101134.97;;;0.20;72.94
43119;BME280;28729;49.838;8.650;2024-01-11T11:59:34;101129.31;;;0.59;72.53
43119;BME280;28729;49.838;8.650;2024-01-11T12:03:41;101123.06;;;1.12;72.28
43119;BME280;28729;49.838;8.650;2024-01-11T12:07:45;101112.09;;;1.66;70.22
43119;BME280;28729;49.838;8.650;2024-01-11T12:11:47;101121.44;;;2.32;70.23
43119;BME280;28729;49.838;8.650;2024-01-11T12:16:03;101112.44;;;2.98;71.18
43119;BME280;28729;49.838;8.650;2024-01-11T12:20:05;101105.97;;;3.32;65.98
43119;BME280;28729;49.838;8.650;2024-01-11T12:24:09;101106.28;;;3.53;63.10
43119;BME280;28729;49.838;8.650;2024-01-11T12:28:11;101097.06;;;3.71;64.35
43119;BME280;28729;49.838;8.650;2024-01-11T12:32:14;101096.00;;;3.96;63.78
43119;BME280;28729;49.838;8.650;2024-01-11T12:36:18;101097.22;;;4.25;61.31
43119;BME280;28729;49.838;8.650;2024-01-11T12:40:21;101088.59;;;4.75;60.85
43119;BME280;28729;49.838;8.650;2024-01-11T12:44:24;101095.41;;;5.02;56.80
43119;BME280;28729;49.838;8.650;2024-01-11T12:48:27;101098.50;;;5.22;54.56
43119;BME280;28729;49.838;8.650;2024-01-11T12:52:29;101100.50;;;4.51;54.32
43119;BME280;28729;49.838;8.650;2024-01-11T12:56:32;101106.94;;;3.80;55.02
43119;BME280;28729;49.838;8.650;2024-01-11T13:00:36;101102.56;;;3.38;56.56
43119;BME280;28729;49.838;8.650;2024-01-11T13:04:39;101087.75;;;3.08;56.12
43119;BME280;28729;49.838;8.650;2024-01-11T13:08:42;101090.47;;;2.91;56.77
43119;BME280;28729;49.838;8.650;2024-01-11T13:12:45;101084.34;;;2.81;57.14
43119;BME280;28729;49.838;8.650;2024-01-11T13:16:54;101083.44;;;2.64;57.55
43119;BME280;28729;49.838;8.650;2024-01-11T13:20:56;101092.63;;;2.63;58.08
43119;BME280;28729;49.838;8.650;2024-01-11T13:24:58;101094.66;;;2.53;58.20
43119;BME280;28729;49.838;8.650;2024-01-11T13:29:00;101092.53;;;2.31;57.25
43119;BME280;28729;49.838;8.650;2024-01-11T13:33:03;101093.88;;;2.18;57.92
43119;BME280;28729;49.838;8.650;2024-01-11T13:37:05;101087.34;;;2.11;58.35
43119;BME280;28729;49.838;8.650;2024-01-11T13:41:07;101089.41;;;2.09;58.85
43119;BME280;28729;49.838;8.650;2024-01-11T13:45:12;101091.38;;;1.99;58.45
43119;BME280;28729;49.838;8.650;2024-01-11T13:49:14;101100.84;;;1.87;58.56
43119;BME280;28729;49.838;8.650;2024-01-11T13:53:16;101091.78;;;1.78;58.66
43119;BME280;28729;49.838;8.650;2024-01-11T13:57:18;101086.19;;;1.79;58.59
43119;BME280;28729;49.838;8.650;2024-01-11T14:01:20;101089.25;;;1.76;58.79
43119;BME280;28729;49.838;8.650;2024-01-11T14:05:21;101091.06;;;1.68;58.33
43119;BME280;28729;49.838;8.650;2024-01-11T14:09:23;101097.28;;;1.60;58.57
43119;BME280;28729;49.838;8.650;2024-01-11T14:13:25;101107.47;;;1.58;58.27
43119;BME280;28729;49.838;8.650;2024-01-11T14:17:27;101117.13;;;1.52;58.29
43119;BME280;28729;49.838;8.650;2024-01-11T14:21:30;101116.31;;;1.60;58.96
43119;BME280;28729;49.838;8.650;2024-01-11T14:25:33;101117.72;;;1.64;58.99
43119;BME280;28729;49.838;8.650;2024-01-11T14:29:40;101111.09;;;1.67;58.98
43119;BME280;28729;49.838;8.650;2024-01-11T14:33:42;101106.53;;;1.67;59.03
43119;BME280;28729;49.838;8.650;2024-01-11T14:37:44;101102.78;;;1.68;59.38
43119;BME280;28729;49.838;8.650;2024-01-11T14:41:46;101100.06;;;1.68;59.32
43119;BME280;28729;49.838;8.650;2024-01-11T14:45:48;101092.22;;;1.65;59.71
43119;BME280;28729;49.838;8.650;2024-01-11T14:49:52;101093.00;;;1.57;58.75
43119;BME280;28729;49.838;8.650;2024-01-11T14:53:54;101083.16;;;1.56;59.21
43119;BME280;28729;49.838;8.650;2024-01-11T14:57:56;101077.91;;;1.55;59.50
43119;BME280;28729;49.838;8.650;2024-01-11T15:02:00;101079.09;;;1.52;59.81
43119;BME280;28729;49.838;8.650;2024-01-11T15:06:03;101084.59;;;1.43;60.20
43119;BME280;28729;49.838;8.650;2024-01-11T15:10:07;101091.16;;;1.32;60.22
43119;BME280;28729;49.838;8.650;2024-01-11T15:14:09;101095.59;;;1.15;60.31
43119;BME280;28729;49.838;8.650;2024-01-11T15:18:12;101098.56;;;1.04;61.02
43119;BME280;28729;49.838;8.650;2024-01-11T15:22:14;101107.81;;;0.93;61.29
43119;BME280;28729;49.838;8.650;2024-01-11T15:26:17;101099.03;;;0.81;61.75
43119;BME280;28729;49.838;8.650;2024-01-11T15:30:20;101100.13;;;0.71;62.14
43119;BME280;28729;49.838;8.650;2024-01-11T15:34:23;101112.19;;;0.58;62.99
43119;BME280;28729;49.838;8.650;2024-01-11T15:38:25;101094.88;;;0.41;63.70
43119;BME280;28729;49.838;8.650;2024-01-11T15:42:27;101093.69;;;0.26;64.32
43119;BME280;28729;49.838;8.650;2024-01-11T15:46:29;101096.06;;;0.11;64.64
43119;BME280;28729;49.838;8.650;2024-01-11T15:50:31;101097.56;;;-0.04;65.41
43119;BME280;28729;49.838;8.650;2024-01-11T15:54:33;101095.34;;;-0.18;66.13
43119;BME280;28729;49.838;8.650;2024-01-11T15:58:35;101103.09;;;-0.33;66.13
43119;BME280;28729;49.838;8.650;2024-01-11T16:02:37;101106.97;;;-0.46;67.08
43119;BME280;28729;49.838;8.650;2024-01-11T16:06:40;101106.16;;;-0.56;67.47
43119;BME280;28729;49.838;8.650;2024-01-11T16:10:42;101118.00;;;-0.66;68.24
43119;BME280;28729;49.838;8.650;2024-01-11T16:14:44;101134.25;;;-0.76;68.63
43119;BME280;28729;49.838;8.650;2024-01-11T16:18:49;101147.94;;;-0.87;69.33
43119;BME280;28729;49.838;8.650;2024-01-11T16:22:51;101153.34;;;-0.97;69.66
43119;BME280;28729;49.838;8.650;2024-01-11T16:26:53;101149.63;;;-1.06;70.07
43119;BME280;28729;49.838;8.650;2024-01-11T16:30:55;101152.47;;;-1.17;70.50
43119;BME280;28729;49.838;8.650;2024-01-11T16:34:59;101153.19;;;-1.25;70.67
43119;BME280;28729;49.838;8.650;2024-01-11T16:39:02;101148.06;;;-1.28;70.95
43119;BME280;28729;49.838;8.650;2024-01-11T16:43:04;101142.34;;;-1.34;71.60
43119;BME280;28729;49.838;8.650;2024-01-11T16:47:06;101144.47;;;-1.38;71.73
43119;BME280;28729;49.838;8.650;2024-01-11T16:51:08;101146.16;;;-1.47;71.59
43119;BME280;28729;49.838;8.650;2024-01-11T16:55:10;101139.91;;;-1.57;72.07
43119;BME280;28729;49.838;8.650;2024-01-11T16:59:13;101153.13;;;-1.64;72.92
43119;BME280;28729;49.838;8.650;2024-01-11T17:03:16;101158.66;;;-1.65;73.65
43119;BME280;28729;49.838;8.650;2024-01-11T17:07:18;101151.81;;;-1.69;74.12
43119;BME280;28729;49.838;8.650;2024-01-11T17:11:20;101149.13;;;-1.69;74.42
43119;BME280;28729;49.838;8.650;2024-01-11T17:15:23;101144.97;;;-1.73;74.47
43119;BME280;28729;49.838;8.650;2024-01-11T17:19:24;101144.25;;;-1.75;74.54
43119;BME280;28729;49.838;8.650;2024-01-11T17:23:26;101146.34;;;-1.79;74.73
43119;BME280;28729;49.838;8.650;2024-01-11T17:27:29;101151.06;;;-1.81;75.40
43119;BME280;28729;49.838;8.650;2024-01-11T17:31:30;101149.34;;;-1.82;75.37
43119;BME280;28729;49.838;8.650;2024-01-11T17:35:32;101156.59;;;-1.83;75.78
43119;BME280;28729;49.838;8.650;2024-01-11T17:39:35;101156.75;;;-1.84;75.97
43119;BME280;28729;49.838;8.650;2024-01-11T17:43:37;101159.72;;;-1.87;76.28
43119;BME280;28729;49.838;8.650;2024-01-11T17:47:38;101154.44;;;-1.89;76.66
43119;BME280;28729;49.838;8.650;2024-01-11T17:51:40;101144.63;;;-1.90;76.46
43119;BME280;28729;49.838;8.650;2024-01-11T17:55:42;101150.72;;;-1.88;76.38
43119;BME280;28729;49.838;8.650;2024-01-11T17:59:47;101162.41;;;-1.87;76.73
43119;BME280;28729;49.838;8.650;2024-01-11T18:03:49;101160.84;;;-1.90;77.31
43119;BME280;28729;49.838;8.650;2024-01-11T18:07:53;101150.16;;;-1.91;76.91
43119;BME280;28729;49.838;8.650;2024-01-11T18:11:57;101166.78;;;-1.96;77.48
43119;BME280;28729;49.838;8.650;2024-01-11T18:15:58;101171.47;;;-1.98;77.90
43119;BME280;28729;49.838;8.650;2024-01-11T18:20:01;101164.63;;;-2.02;78.11
43119;BME280;28729;49.838;8.650;2024-01-11T18:24:07;101167.72;;;-2.07;78.29
43119;BME280;28729;49.838;8.650;2024-01-11T18:28:08;101165.03;;;-2.07;78.39
43119;BME280;28729;49.838;8.650;2024-01-11T18:32:10;101153.63;;;-2.10;78.46
43119;BME280;28729;49.838;8.650;2024-01-11T18:36:12;101166.41;;;-2.12;78.50
43119;BME280;28729;49.838;8.650;2024-01-11T18:40:16;101159.03;;;-2.10;78.77
43119;BME280;28729;49.838;8.650;2024-01-11T18:44:18;101171.44;;;-2.08;78.89
43119;BME280;28729;49.838;8.650;2024-01-11T18:48:21;101165.03;;;-2.07;79.15
43119;BME280;28729;49.838;8.650;2024-01-11T18:52:25;101159.50;;;-2.05;79.17
43119;BME280;28729;49.838;8.650;2024-01-11T18:56:30;101180.09;;;-2.04;79.01
43119;BME280;28729;49.838;8.650;2024-01-11T19:00:32;101161.31;;;-2.06;79.17
43119;BME280;28729;49.838;8.650;2024-01-11T19:04:36;101162.19;;;-2.05;79.41
43119;BME280;28729;49.838;8.650;2024-01-11T19:08:38;101157.66;;;-2.04;79.56
43119;BME280;28729;49.838;8.650;2024-01-11T19:12:40;101164.91;;;-2.05;79.80
43119;BME280;28729;49.838;8.650;2024-01-11T19:16:43;101155.81;;;-2.04;79.93
43119;BME280;28729;49.838;8.650;2024-01-11T19:20:45;101159.50;;;-2.05;79.95
43119;BME280;28729;49.838;8.650;2024-01-11T19:24:49;101166.72;;;-2.06;80.46
43119;BME280;28729;49.838;8.650;2024-01-11T19:28:51;101165.88;;;-2.06;80.17
43119;BME280;28729;49.838;8.650;2024-01-11T19:32:54;101175.81;;;-2.07;80.37
43119;BME280;28729;49.838;8.650;2024-01-11T19:36:56;101184.78;;;-2.06;80.01
43119;BME280;28729;49.838;8.650;2024-01-11T19:40:58;101186.06;;;-2.10;80.22
43119;BME280;28729;49.838;8.650;2024-01-11T19:44:59;101196.28;;;-2.14;79.82
43119;BME280;28729;49.838;8.650;2024-01-11T19:49:01;101197.13;;;-2.13;80.27
43119;BME280;28729;49.838;8.650;2024-01-11T19:53:08;101205.97;;;-2.11;79.74
43119;BME280;28729;49.838;8.650;2024-01-11T19:57:13;101199.81;;;-2.13;79.89
43119;BME280;28729;49.838;8.650;2024-01-11T20:01:17;101199.94;;;-2.15;79.94
43119;BME280;28729;49.838;8.650;2024-01-11T20:05:20;101214.28;;;-2.14;79.96
43119;BME280;28729;49.838;8.650;2024-01-11T20:09:22;101211.34;;;-2.11;79.98
43119;BME280;28729;49.838;8.650;2024-01-11T20:13:24;101199.88;;;-2.03;78.87
43119;BME280;28729;49.838;8.650;2024-01-11T20:17:27;101214.81;;;-1.99;78.46
43119;BME280;28729;49.838;8.650;2024-01-11T20:21:31;101214.16;;;-1.92;77.95
43119;BME280;28729;49.838;8.650;2024-01-11T20:25:33;101219.00;;;-1.86;77.13
43119;BME280;28729;49.838;8.650;2024-01-11T20:29:37;101213.91;;;-1.79;76.58
43119;BME280;28729;49.838;8.650;2024-01-11T20:33:42;101214.91;;;-1.80;76.55
43119;BME280;28729;49.838;8.650;2024-01-11T20:37:45;101209.50;;;-1.80;76.39
43119;BME280;28729;49.838;8.650;2024-01-11T20:41:46;101201.41;;;-1.80;76.58
43119;BME280;28729;49.838;8.650;2024-01-11T20:45:48;101209.78;;;-1.83;76.57
43119;BME280;28729;49.838;8.650;2024-01-11T20:49:54;101205.50;;;-1.86;77.11
43119;BME280;28729;49.838;8.650;2024-01-11T20:53:56;101216.03;;;-1.83;77.46
43119;BME280;28729;49.838;8.650;2024-01-11T20:58:01;101220.59;;;-1.83;77.78
43119;BME280;28729;49.838;8.650;2024-01-11T21:02:03;101225.00;;;-1.82;77.75
43119;BME280;28729;49.838;8.650;2024-01-11T21:06:08;101219.16;;;-1.87;78.13
43119;BME280;28729;49.838;8.650;2024-01-11T21:10:11;101222.84;;;-1.88;78.41
43119;BME280;28729;49.838;8.650;2024-01-11T21:14:12;101214.03;;;-1.90;79.06